createdAt,value
2023-04-07T00:01:40.472Z,101059.06
2023-04-07T00:04:07.690Z,101053.03
2023-04-07T00:06:34.876Z,101060.22
2023-04-07T00:09:01.975Z,101050.44
2023-04-07T00:11:28.981Z,101037.09
2023-04-07T00:13:56.319Z,101047.75
2023-04-07T00:16:23.629Z,101044.72
2023-04-07T00:18:50.564Z,101048.41
2023-04-07T00:21:17.469Z,101045.94
2023-04-07T00:26:36.168Z,101033.13
2023-04-07T00:29:03.200Z,101017.78
2023-04-07T00:31:30.512Z,101037.78
2023-04-07T00:33:57.945Z,101040.47
2023-04-07T00:36:29.780Z,101035.72
2023-04-07T00:38:56.780Z,101036.28
2023-04-07T00:41:23.704Z,101025.81
2023-04-07T00:43:51.913Z,101031.22
2023-04-07T00:46:24.350Z,101034.09
2023-04-07T00:48:51.372Z,101030.41
2023-04-07T00:51:22.790Z,101032.56
2023-04-07T00:53:50.234Z,101021.41
2023-04-07T00:56:17.226Z,101027.41
2023-04-07T00:58:44.239Z,101018.47
2023-04-07T01:01:23.680Z,101036.50
2023-04-07T01:04:02.648Z,101034.59
2023-04-07T01:06:40.586Z,101041.22
2023-04-07T01:09:16.689Z,101033.47
2023-04-07T01:12:05.332Z,101037.88
2023-04-07T01:14:41.230Z,101023.97
2023-04-07T01:17:27.450Z,101023.88
2023-04-07T01:20:05.294Z,101026.91
2023-04-07T01:22:46.989Z,101018.06
2023-04-07T01:25:56.846Z,101033.66
2023-04-07T01:28:37.194Z,101030.06
2023-04-07T01:31:06.175Z,101016.94
2023-04-07T01:33:35.448Z,101006.03
2023-04-07T01:36:05.595Z,101023.44
2023-04-07T01:38:34.113Z,101018.06
2023-04-07T01:41:01.907Z,101020.69
2023-04-07T01:43:30.414Z,101024.78
2023-04-07T01:45:58.165Z,101026.59
2023-04-07T01:48:25.913Z,101008.91
2023-04-07T01:50:53.384Z,101015.03
2023-04-07T01:53:20.748Z,101025.78
2023-04-07T01:55:47.754Z,101025.88
2023-04-07T01:58:15.415Z,101022.06
2023-04-07T02:00:43.662Z,101024.84
2023-04-07T02:03:33.637Z,101012.78
2023-04-07T02:06:08.010Z,101019.03
2023-04-07T02:08:42.657Z,100976.25
2023-04-07T02:11:11.773Z,101006.78
2023-04-07T02:13:39.645Z,101021.81
2023-04-07T02:16:10.576Z,101018.06
2023-04-07T02:18:38.655Z,101018.94
2023-04-07T02:21:08.746Z,101005.63
2023-04-07T02:23:36.538Z,101014.34
2023-04-07T02:26:03.491Z,100996.31
2023-04-07T02:28:30.515Z,100993.75
2023-04-07T02:30:57.408Z,100996.53
2023-04-07T02:33:25.414Z,101003.41
2023-04-07T02:35:52.375Z,101002.75
2023-04-07T02:38:19.383Z,101002.91
2023-04-07T02:40:46.292Z,101012.41
2023-04-07T02:43:13.815Z,101013.38
2023-04-07T02:45:40.860Z,101018.94
2023-04-07T02:48:07.803Z,101017.19
2023-04-07T02:50:34.771Z,101022.69
2023-04-07T02:53:01.712Z,101017.44
2023-04-07T02:55:29.816Z,101028.06
2023-04-07T02:57:56.780Z,101028.06
2023-04-07T03:00:36.896Z,101023.50
2023-04-07T03:03:09.661Z,101020.00
2023-04-07T03:05:39.159Z,100998.19
2023-04-07T03:08:07.032Z,101003.00
2023-04-07T03:10:33.994Z,101018.44
2023-04-07T03:13:00.967Z,101031.38
2023-04-07T03:15:28.893Z,101022.50
2023-04-07T03:17:56.203Z,101023.84
2023-04-07T03:20:23.491Z,101019.31
2023-04-07T03:22:53.716Z,101013.00
2023-04-07T03:25:27.465Z,101008.03
2023-04-07T03:27:55.486Z,101008.88
2023-04-07T03:30:23.384Z,101006.50
2023-04-07T03:32:50.336Z,101013.59
2023-04-07T03:35:17.400Z,100991.28
2023-04-07T03:37:45.052Z,101030.44
2023-04-07T03:40:15.892Z,101018.00
2023-04-07T03:42:43.816Z,100991.78
2023-04-07T03:45:13.127Z,101010.25
2023-04-07T03:47:44.994Z,101002.38
2023-04-07T03:50:12.648Z,101023.28
2023-04-07T03:52:50.565Z,101013.28
2023-04-07T03:55:23.882Z,101015.69
2023-04-07T03:57:55.412Z,101011.38
2023-04-07T04:00:22.782Z,101010.72
2023-04-07T04:03:03.924Z,100990.63
2023-04-07T04:05:32.040Z,101020.00
2023-04-07T04:07:59.266Z,101028.72
2023-04-07T04:10:27.432Z,101016.47
2023-04-07T04:12:55.647Z,101031.09
2023-04-07T04:15:22.638Z,101034.97
2023-04-07T04:17:50.926Z,101027.94
2023-04-07T04:20:18.827Z,100999.00
2023-04-07T04:22:49.357Z,101036.88
2023-04-07T04:25:17.868Z,101022.88
2023-04-07T04:27:48.971Z,101026.91
2023-04-07T04:30:22.543Z,101039.25
2023-04-07T04:32:56.318Z,101035.41
2023-04-07T04:35:32.283Z,101016.16
2023-04-07T04:38:09.170Z,101041.00
2023-04-07T04:40:38.030Z,101050.56
2023-04-07T04:43:07.101Z,101043.94
2023-04-07T04:45:36.668Z,101048.38
2023-04-07T04:48:04.888Z,101040.88
2023-04-07T04:50:31.870Z,101040.38
2023-04-07T04:52:59.645Z,101060.22
2023-04-07T04:55:27.071Z,101063.94
2023-04-07T04:57:54.964Z,101057.25
2023-04-07T05:00:31.188Z,101048.13
2023-04-07T05:03:03.437Z,101053.50
2023-04-07T05:05:34.537Z,101053.88
2023-04-07T05:08:02.204Z,101055.97
2023-04-07T05:10:38.376Z,101052.19
2023-04-07T05:13:06.772Z,101061.03
2023-04-07T05:15:33.864Z,101077.03
2023-04-07T05:18:01.031Z,101059.41
2023-04-07T05:20:29.101Z,101073.69
2023-04-07T05:22:56.504Z,101067.25
2023-04-07T05:25:29.898Z,101078.53
2023-04-07T05:28:00.133Z,101086.75
2023-04-07T05:30:27.532Z,101074.41
2023-04-07T05:32:55.317Z,101075.06
2023-04-07T05:35:32.157Z,101074.91
2023-04-07T05:37:59.409Z,101076.22
2023-04-07T05:40:27.132Z,101078.06
2023-04-07T05:42:55.964Z,101085.06
2023-04-07T05:45:23.379Z,101076.88
2023-04-07T05:47:51.633Z,101103.56
2023-04-07T05:50:25.729Z,101096.38
2023-04-07T05:52:52.835Z,101089.66
2023-04-07T05:55:23.738Z,101108.38
2023-04-07T05:57:52.048Z,101100.53
2023-04-07T06:00:22.137Z,101114.34
2023-04-07T06:02:59.818Z,101089.47
2023-04-07T06:05:28.242Z,101117.47
2023-04-07T06:07:56.933Z,101104.81
2023-04-07T06:10:26.699Z,101113.06
2023-04-07T06:12:53.629Z,101135.41
2023-04-07T06:15:21.290Z,101121.22
2023-04-07T06:17:48.278Z,101132.38
2023-04-07T06:20:15.312Z,101133.25
2023-04-07T06:22:42.197Z,101129.47
2023-04-07T06:25:09.735Z,101110.13
2023-04-07T06:27:36.819Z,101119.00
2023-04-07T06:30:04.378Z,101125.25
2023-04-07T06:32:31.707Z,101140.44
2023-04-07T06:34:58.767Z,101142.09
2023-04-07T06:37:26.136Z,101126.38
2023-04-07T06:39:54.539Z,101131.09
2023-04-07T06:42:21.459Z,101145.69
2023-04-07T06:45:00.010Z,101143.09
2023-04-07T06:47:28.229Z,101136.00
2023-04-07T06:49:55.319Z,101143.28
2023-04-07T06:52:22.260Z,101150.66
2023-04-07T06:54:49.222Z,101140.59
2023-04-07T06:57:16.384Z,101149.19
2023-04-07T06:59:43.543Z,101159.81
2023-04-07T07:02:10.681Z,101135.50
2023-04-07T07:04:37.843Z,101145.50
2023-04-07T07:07:04.868Z,101162.66
2023-04-07T07:09:31.726Z,101139.28
2023-04-07T07:11:58.758Z,101167.56
2023-04-07T07:14:25.789Z,101140.16
2023-04-07T07:16:52.723Z,101166.03
2023-04-07T07:19:19.681Z,101154.44
2023-04-07T07:21:46.664Z,101165.66
2023-04-07T07:24:13.643Z,101165.63
2023-04-07T07:26:43.472Z,101163.53
2023-04-07T07:29:11.344Z,101152.81
2023-04-07T07:31:38.462Z,101167.75
2023-04-07T07:34:05.606Z,101151.25
2023-04-07T07:36:32.622Z,101165.63
2023-04-07T07:38:59.598Z,101175.59
2023-04-07T07:41:27.180Z,101169.28
2023-04-07T07:43:54.413Z,101168.59
2023-04-07T07:46:21.397Z,101182.09
2023-04-07T07:48:48.305Z,101176.25
2023-04-07T07:51:15.557Z,101188.19
2023-04-07T07:53:42.541Z,101185.31
2023-04-07T07:56:09.522Z,101178.28
2023-04-07T07:58:36.546Z,101167.00
2023-04-07T08:01:03.626Z,101174.16
2023-04-07T08:03:30.870Z,101188.63
2023-04-07T08:05:58.032Z,101181.72
2023-04-07T08:08:25.016Z,101187.03
2023-04-07T08:10:52.924Z,101204.88
2023-04-07T08:13:20.044Z,101190.38
2023-04-07T08:15:46.994Z,101202.84
2023-04-07T08:18:14.167Z,101172.91
2023-04-07T08:20:41.233Z,101196.47
2023-04-07T08:23:08.180Z,101212.25
2023-04-07T08:25:35.576Z,101201.81
2023-04-07T08:28:02.720Z,101203.38
2023-04-07T08:30:29.674Z,101199.16
2023-04-07T08:32:56.855Z,101201.78
2023-04-07T08:35:23.862Z,101210.56
2023-04-07T08:37:51.011Z,101203.38
2023-04-07T08:40:17.984Z,101222.22
2023-04-07T08:42:49.789Z,101205.50
2023-04-07T08:45:18.587Z,101214.41
2023-04-07T08:47:48.220Z,101202.88
2023-04-07T08:50:18.264Z,101217.31
2023-04-07T08:52:50.704Z,101224.19
2023-04-07T08:55:17.762Z,101198.91
2023-04-07T08:57:46.459Z,101208.44
2023-04-07T09:00:23.614Z,101233.88
2023-04-07T09:02:51.928Z,101197.06
2023-04-07T09:05:19.012Z,101203.97
2023-04-07T09:07:46.109Z,101206.66
2023-04-07T09:10:13.136Z,101202.16
2023-04-07T09:12:40.377Z,101210.28
2023-04-07T09:15:08.467Z,101222.34
2023-04-07T09:17:35.521Z,101214.22
2023-04-07T09:20:02.963Z,101219.50
2023-04-07T09:22:59.912Z,101216.19
2023-04-07T09:25:30.235Z,101220.59
2023-04-07T09:28:05.207Z,101221.44
2023-04-07T09:30:33.919Z,101216.91
2023-04-07T09:33:01.975Z,101227.84
2023-04-07T09:35:29.797Z,101225.28
2023-04-07T09:38:10.656Z,101219.25
2023-04-07T09:40:37.724Z,101221.22
2023-04-07T09:43:06.517Z,101222.09
2023-04-07T09:45:36.612Z,101215.53
2023-04-07T09:48:10.878Z,101229.19
2023-04-07T09:50:42.175Z,101217.53
2023-04-07T09:53:09.295Z,101193.16
2023-04-07T09:55:36.978Z,101204.59
2023-04-07T09:58:06.330Z,101211.94
2023-04-07T10:00:33.668Z,101215.53
2023-04-07T10:03:01.890Z,101204.84
2023-04-07T10:05:29.541Z,101211.69
2023-04-07T10:07:57.023Z,101218.44
2023-04-07T10:10:26.536Z,101219.78
2023-04-07T10:12:55.458Z,101226.34
2023-04-07T10:15:22.929Z,101209.31
2023-04-07T10:17:52.131Z,101218.44
2023-04-07T10:20:22.716Z,101226.63
2023-04-07T10:22:53.835Z,101223.97
2023-04-07T10:25:24.681Z,101225.88
2023-04-07T10:28:06.881Z,101229.69
2023-04-07T10:30:35.232Z,101239.91
2023-04-07T10:33:02.485Z,101249.91
2023-04-07T10:36:07.789Z,101244.59
2023-04-07T10:38:34.917Z,101250.78
2023-04-07T10:41:42.681Z,101239.81
2023-04-07T10:44:33.645Z,101239.97
2023-04-07T10:47:05.854Z,101243.66
2023-04-07T10:49:34.988Z,101249.63
2023-04-07T10:52:14.784Z,101240.88
2023-04-07T10:54:42.799Z,101247.63
2023-04-07T10:57:13.085Z,101249.44
2023-04-07T10:59:46.939Z,101249.53
2023-04-07T11:02:17.516Z,101229.38
2023-04-07T11:04:46.826Z,101246.31
2023-04-07T11:07:16.560Z,101249.03
2023-04-07T11:09:44.062Z,101240.88
2023-04-07T11:12:23.946Z,101250.69
2023-04-07T11:14:51.116Z,101249.34
2023-04-07T11:17:18.181Z,101235.91
2023-04-07T11:19:54.652Z,101237.81
2023-04-07T11:22:29.926Z,101243.22
2023-04-07T11:24:57.634Z,101244.22
2023-04-07T11:27:24.678Z,101253.25
2023-04-07T11:29:51.652Z,101246.28
2023-04-07T11:32:29.738Z,101250.28
2023-04-07T11:34:57.596Z,101248.41
2023-04-07T11:37:28.843Z,101244.78
2023-04-07T11:39:58.543Z,101244.09
2023-04-07T11:42:33.537Z,101245.13
2023-04-07T11:45:00.991Z,101247.41
2023-04-07T11:47:39.758Z,101241.69
2023-04-07T11:50:07.840Z,101255.81
2023-04-07T11:52:46.889Z,101252.13
2023-04-07T11:55:22.802Z,101252.84
2023-04-07T11:57:51.849Z,101229.91
2023-04-07T12:00:20.309Z,101247.94
2023-04-07T12:02:47.514Z,101227.22
2023-04-07T12:05:14.896Z,101246.13
2023-04-07T12:07:53.880Z,101238.81
2023-04-07T12:10:28.101Z,101254.16
2023-04-07T12:12:56.342Z,101252.72
2023-04-07T12:15:24.432Z,101257.13
2023-04-07T12:17:51.447Z,101252.34
2023-04-07T12:20:18.800Z,101253.09
2023-04-07T12:22:45.711Z,101256.00
2023-04-07T12:25:12.600Z,101244.13
2023-04-07T12:27:43.629Z,101251.13
2023-04-07T12:30:13.116Z,101258.28
2023-04-07T12:32:40.460Z,101246.84
2023-04-07T12:35:08.405Z,101247.28
2023-04-07T12:37:35.769Z,101268.59
2023-04-07T12:40:02.801Z,101247.09
2023-04-07T12:42:29.752Z,101264.75
2023-04-07T12:44:56.881Z,101252.84
2023-04-07T12:47:23.973Z,101264.59
2023-04-07T12:49:51.123Z,101251.28
2023-04-07T12:52:18.285Z,101274.91
2023-04-07T12:54:45.452Z,101248.25
2023-04-07T12:57:13.011Z,101268.59
2023-04-07T12:59:39.947Z,101266.72
2023-04-07T13:02:07.358Z,101273.47
2023-04-07T13:04:35.396Z,101265.88
2023-04-07T13:07:03.238Z,101263.84
2023-04-07T13:09:30.287Z,101272.31
2023-04-07T13:11:57.964Z,101259.28
2023-04-07T13:14:25.288Z,101246.25
2023-04-07T13:16:52.477Z,101252.56
2023-04-07T13:19:19.555Z,101267.16
2023-04-07T13:21:47.797Z,101273.91
2023-04-07T13:24:15.843Z,101274.19
2023-04-07T13:26:43.104Z,101261.41
2023-04-07T13:29:10.095Z,101258.34
2023-04-07T13:31:37.097Z,101250.81
2023-04-07T13:34:04.145Z,101250.88
2023-04-07T13:36:31.188Z,101254.66
2023-04-07T13:38:58.118Z,101256.25
2023-04-07T13:41:25.056Z,101244.97
2023-04-07T13:43:52.135Z,101270.16
2023-04-07T13:48:49.427Z,101252.72
2023-04-07T13:51:16.925Z,101265.16
2023-04-07T13:53:43.868Z,101271.47
2023-04-07T13:56:11.000Z,101268.31
2023-04-07T13:58:37.953Z,101269.72
2023-04-07T14:01:05.089Z,101265.59
2023-04-07T14:03:32.877Z,101265.97
2023-04-07T14:06:01.491Z,101275.69
2023-04-07T14:08:28.429Z,101265.66
2023-04-07T14:10:55.537Z,101248.56
2023-04-07T14:13:23.076Z,101242.06
2023-04-07T14:15:50.765Z,101268.47
2023-04-07T14:18:17.741Z,101266.25
2023-04-07T14:20:44.835Z,101250.72
2023-04-07T14:23:12.181Z,101256.53
2023-04-07T14:25:39.101Z,101257.91
2023-04-07T14:28:06.368Z,101256.16
2023-04-07T14:30:38.686Z,101247.19
2023-04-07T14:33:06.082Z,101265.50
2023-04-07T14:35:33.184Z,101263.53
2023-04-07T14:38:00.332Z,101257.19
2023-04-07T14:40:27.309Z,101252.81
2023-04-07T14:43:06.983Z,101272.41
2023-04-07T14:45:35.768Z,101254.41
2023-04-07T14:48:02.955Z,101269.31
2023-04-07T14:50:33.713Z,101261.97
2023-04-07T14:53:01.459Z,101273.88
2023-04-07T14:55:28.994Z,101253.13
2023-04-07T14:57:56.027Z,101266.28
2023-04-07T15:00:25.272Z,101276.91
2023-04-07T15:02:54.403Z,101261.72
2023-04-07T15:05:23.052Z,101274.91
2023-04-07T15:07:52.366Z,101286.94
2023-04-07T15:10:20.321Z,101272.56
2023-04-07T15:12:48.702Z,101290.94
2023-04-07T15:15:16.239Z,101271.47
2023-04-07T15:17:44.781Z,101296.66
2023-04-07T15:20:13.073Z,101282.91
2023-04-07T15:22:40.437Z,101269.00
2023-04-07T15:25:08.006Z,101281.38
2023-04-07T15:27:35.194Z,101279.75
2023-04-07T15:30:02.361Z,101282.91
2023-04-07T15:32:31.898Z,101298.94
2023-04-07T15:34:58.874Z,101301.34
2023-04-07T15:37:26.394Z,101293.59
2023-04-07T15:39:53.442Z,101301.22
2023-04-07T15:42:20.402Z,101301.38
2023-04-07T15:44:47.401Z,101302.78
2023-04-07T15:47:14.415Z,101300.91
2023-04-07T15:49:42.196Z,101309.91
2023-04-07T15:52:09.409Z,101312.69
2023-04-07T15:54:36.391Z,101303.81
2023-04-07T15:57:03.460Z,101319.56
2023-04-07T15:59:31.075Z,101314.97
2023-04-07T16:01:58.715Z,101309.22
2023-04-07T16:04:25.874Z,101306.81
2023-04-07T16:06:52.908Z,101319.72
2023-04-07T16:09:20.005Z,101314.69
2023-04-07T16:11:47.082Z,101323.25
2023-04-07T16:14:14.065Z,101322.13
2023-04-07T16:16:41.752Z,101325.78
2023-04-07T16:19:08.954Z,101324.75
2023-04-07T16:21:36.026Z,101329.25
2023-04-07T16:24:02.936Z,101327.59
2023-04-07T16:26:29.954Z,101332.47
2023-04-07T16:28:56.888Z,101319.31
2023-04-07T16:31:23.906Z,101323.19
2023-04-07T16:33:51.582Z,101320.19
2023-04-07T16:36:18.668Z,101321.88
2023-04-07T16:38:45.875Z,101331.84
2023-04-07T16:41:12.781Z,101321.31
2023-04-07T16:43:39.731Z,101325.91
2023-04-07T16:46:06.937Z,101340.38
2023-04-07T16:48:33.869Z,101333.97
2023-04-07T16:51:00.883Z,101340.25
2023-04-07T16:53:27.868Z,101341.28
2023-04-07T16:55:55.294Z,101356.34
2023-04-07T16:58:22.391Z,101351.84
2023-04-07T17:00:49.311Z,101348.09
2023-04-07T17:03:16.657Z,101366.66
2023-04-07T17:05:44.692Z,101360.88
2023-04-07T17:08:11.914Z,101361.34
2023-04-07T17:10:38.894Z,101353.50
2023-04-07T17:13:07.007Z,101373.03
2023-04-07T17:15:38.619Z,101363.47
2023-04-07T17:18:05.762Z,101371.09
2023-04-07T17:20:32.856Z,101367.06
2023-04-07T17:23:01.620Z,101383.56
2023-04-07T17:25:28.548Z,101375.72
2023-04-07T17:27:55.508Z,101393.44
2023-04-07T17:30:22.637Z,101383.78
2023-04-07T17:32:50.736Z,101393.38
2023-04-07T17:35:18.071Z,101400.41
2023-04-07T17:37:45.222Z,101400.66
2023-04-07T17:40:12.808Z,101414.94
2023-04-07T17:42:39.876Z,101416.56
2023-04-07T17:45:08.301Z,101412.75
2023-04-07T17:47:38.839Z,101410.81
2023-04-07T17:50:06.962Z,101411.19
2023-04-07T17:52:33.888Z,101414.72
2023-04-07T17:55:01.707Z,101405.84
2023-04-07T17:57:29.113Z,101430.47
2023-04-07T17:59:56.117Z,101437.03
2023-04-07T18:02:23.382Z,101407.72
2023-04-07T18:04:50.604Z,101438.66
2023-04-07T18:07:17.865Z,101415.25
2023-04-07T18:09:44.861Z,101445.28
2023-04-07T18:12:12.218Z,101438.63
2023-04-07T18:14:39.326Z,101460.06
2023-04-07T18:17:06.386Z,101442.22
2023-04-07T18:19:34.004Z,101457.47
2023-04-07T18:22:01.199Z,101455.63
2023-04-07T18:24:28.397Z,101436.97
2023-04-07T18:26:56.701Z,101462.69
2023-04-07T18:29:23.902Z,101449.13
2023-04-07T18:31:51.310Z,101474.72
2023-04-07T18:34:18.413Z,101479.28
2023-04-07T18:36:47.474Z,101464.47
2023-04-07T18:39:14.455Z,101476.78
2023-04-07T18:41:44.607Z,101487.97
2023-04-07T18:44:12.322Z,101497.00
2023-04-07T18:46:39.637Z,101499.13
2023-04-07T18:49:06.777Z,101495.50
2023-04-07T18:51:33.760Z,101505.06
2023-04-07T18:54:00.749Z,101509.41
2023-04-07T18:56:28.279Z,101501.97
2023-04-07T18:58:55.366Z,101497.38
2023-04-07T19:01:22.478Z,101510.47
2023-04-07T19:03:49.720Z,101507.56
2023-04-07T19:06:17.433Z,101519.75
2023-04-07T19:08:45.308Z,101520.22
2023-04-07T19:11:12.317Z,101531.75
2023-04-07T19:13:39.286Z,101511.78
2023-04-07T19:16:07.536Z,101540.94
2023-04-07T19:18:34.688Z,101534.13
2023-04-07T19:21:02.102Z,101528.31
2023-04-07T19:23:30.622Z,101511.16
2023-04-07T19:25:57.615Z,101540.41
2023-04-07T19:28:24.609Z,101532.09
2023-04-07T19:30:52.077Z,101540.28
2023-04-07T19:33:19.014Z,101541.69
2023-04-07T19:35:46.337Z,101541.91
2023-04-07T19:38:13.307Z,101545.47
2023-04-07T19:40:40.917Z,101551.16
2023-04-07T19:43:08.273Z,101575.00
2023-04-07T19:45:35.284Z,101570.00
2023-04-07T19:48:02.282Z,101556.38
2023-04-07T19:50:29.522Z,101588.19
2023-04-07T19:52:56.927Z,101580.53
2023-04-07T19:55:24.118Z,101587.47
2023-04-07T19:57:51.097Z,101590.69
2023-04-07T20:00:18.590Z,101578.16
2023-04-07T20:02:49.732Z,101602.19
2023-04-07T20:05:19.512Z,101615.84
2023-04-07T20:07:47.085Z,101605.34
2023-04-07T20:10:14.032Z,101609.00
2023-04-07T20:12:41.078Z,101594.06
2023-04-07T20:15:08.762Z,101627.50
2023-04-07T20:17:37.050Z,101604.94
2023-04-07T20:20:05.619Z,101637.84
2023-04-07T20:22:35.433Z,101613.03
2023-04-07T20:25:05.528Z,101614.34
2023-04-07T20:27:33.506Z,101639.63
2023-04-07T20:30:01.251Z,101634.31
2023-04-07T20:32:28.557Z,101641.53
2023-04-07T20:34:55.831Z,101627.41
2023-04-07T20:37:23.612Z,101643.38
2023-04-07T20:39:50.604Z,101637.56
2023-04-07T20:42:17.607Z,101638.50
2023-04-07T20:44:48.744Z,101656.28
2023-04-07T20:47:15.652Z,101655.16
2023-04-07T20:49:43.947Z,101653.16
2023-04-07T20:52:10.994Z,101642.66
2023-04-07T20:54:37.910Z,101630.97
2023-04-07T20:57:04.861Z,101663.56
2023-04-07T20:59:32.672Z,101657.69
2023-04-07T21:02:00.293Z,101675.44
2023-04-07T21:04:27.629Z,101657.09
2023-04-07T21:06:54.618Z,101676.56
2023-04-07T21:09:21.613Z,101672.06
2023-04-07T21:11:48.578Z,101689.38
2023-04-07T21:14:15.666Z,101677.22
2023-04-07T21:16:43.412Z,101691.91
2023-04-07T21:19:11.078Z,101679.72
2023-04-07T21:21:38.001Z,101670.25
2023-04-07T21:24:05.200Z,101695.47
2023-04-07T21:26:32.461Z,101698.44
2023-04-07T21:28:59.357Z,101673.50
2023-04-07T21:31:27.155Z,101689.06
2023-04-07T21:33:56.950Z,101686.66
2023-04-07T21:36:23.954Z,101679.03
2023-04-07T21:38:52.288Z,101684.94
2023-04-07T21:41:19.192Z,101687.88
2023-04-07T21:43:46.132Z,101685.09
2023-04-07T21:46:14.210Z,101713.09
2023-04-07T21:48:41.200Z,101711.28
2023-04-07T21:51:08.149Z,101693.75
2023-04-07T21:53:38.173Z,101695.50
2023-04-07T21:56:05.804Z,101689.50
2023-04-07T21:58:32.730Z,101705.72
2023-04-07T22:01:00.055Z,101703.28
2023-04-07T22:03:29.488Z,101698.97
2023-04-07T22:06:00.333Z,101701.75
2023-04-07T22:08:27.449Z,101705.72
2023-04-07T22:10:54.742Z,101698.31
2023-04-07T22:13:21.692Z,101702.06
2023-04-07T22:15:50.162Z,101716.03
2023-04-07T22:18:17.186Z,101715.84
2023-04-07T22:20:45.074Z,101718.25
2023-04-07T22:23:11.963Z,101701.19
2023-04-07T22:25:38.970Z,101714.88
2023-04-07T22:28:06.058Z,101704.13
2023-04-07T22:30:32.972Z,101716.91
2023-04-07T22:32:59.954Z,101728.69
2023-04-07T22:35:27.045Z,101705.69
2023-04-07T22:37:54.133Z,101720.56
2023-04-07T22:40:21.022Z,101721.66
2023-04-07T22:42:48.115Z,101738.81
2023-04-07T22:45:15.300Z,101712.22
2023-04-07T22:47:42.579Z,101735.78
2023-04-07T22:50:10.065Z,101718.19
2023-04-07T22:52:36.970Z,101733.78
2023-04-07T22:55:04.221Z,101725.91
2023-04-07T22:57:31.085Z,101744.91
2023-04-07T22:59:57.972Z,101731.66
2023-04-07T23:02:24.964Z,101734.44
2023-04-07T23:04:52.069Z,101736.59
2023-04-07T23:07:18.991Z,101746.78
2023-04-07T23:09:48.976Z,101728.75
2023-04-07T23:12:16.112Z,101743.84
2023-04-07T23:14:43.041Z,101733.41
2023-04-07T23:17:10.941Z,101746.69
2023-04-07T23:19:37.935Z,101742.03
2023-04-07T23:22:04.841Z,101737.69
2023-04-07T23:24:31.728Z,101750.25
2023-04-07T23:26:58.813Z,101739.03
2023-04-07T23:29:26.002Z,101746.75
2023-04-07T23:31:53.063Z,101746.84
2023-04-07T23:34:20.084Z,101749.78
2023-04-07T23:36:47.357Z,101755.31
2023-04-07T23:39:14.326Z,101744.09
2023-04-07T23:41:41.370Z,101767.88
2023-04-07T23:44:08.367Z,101746.19
2023-04-07T23:46:35.506Z,101740.91
2023-04-07T23:49:02.823Z,101727.47
2023-04-07T23:51:30.589Z,101745.19
2023-04-07T23:53:57.556Z,101756.38
2023-04-07T23:56:24.714Z,101738.81
2023-04-07T23:58:51.739Z,101747.13
